Time;durP1;ratioP1;P1;durP2;ratioP2;P2;SDS_P1;SDS_P2;PMS_P1;PMS_P2;Temp;Humidity;BMP_temperature;BMP_pressure;BME280_temperature;BME280_humidity;BME280_pressure;Samples;Min_cycle;Max_cycle;Signal;HPM_P1;HPM_P2
2022/01/19 00:00:13;;;;;;;9.52;4.70;;;;;;;-3.19;60.34;94521.31;5071543;28;20024;-39
2022/01/19 00:02:39;;;;;;;7.30;3.50;;;;;;;-3.33;60.91;94522.53;5071148;28;20038;-37
2022/01/19 00:05:07;;;;;;;7.68;3.78;;;;;;;-3.13;60.59;94522.28;5071432;28;20017;-38
2022/01/19 00:07:32;;;;;;;7.00;4.20;;;;;;;-3.13;60.32;94531.16;5071030;28;20036;-38
2022/01/19 00:10:05;;;;;;;6.78;4.07;;;;;;;-3.19;60.54;94511.28;5071777;28;20028;-38
2022/01/19 00:12:33;;;;;;;8.18;3.97;;;;;;;-3.14;60.20;94529.63;5071444;28;20059;-38
2022/01/19 00:14:59;;;;;;;9.82;4.10;;;;;;;-2.89;60.39;94528.06;5071335;28;20508;-38
2022/01/19 00:17:25;;;;;;;10.73;5.05;;;;;;;-2.93;60.37;94543.66;5071264;28;20078;-38
2022/01/19 00:19:50;;;;;;;5.57;3.90;;;;;;;-3.04;59.73;94545.94;5071312;28;20047;-38
2022/01/19 00:22:16;;;;;;;9.18;4.72;;;;;;;-2.97;60.68;94556.53;5071558;28;20066;-38
2022/01/19 00:24:42;;;;;;;11.15;4.85;;;;;;;-2.90;59.59;94556.28;5070669;28;20416;-41
2022/01/19 00:27:08;;;;;;;9.93;4.00;;;;;;;-2.65;59.14;94558.94;5071573;28;20455;-38
2022/01/19 00:29:33;;;;;;;6.07;4.18;;;;;;;-2.77;59.35;94557.03;5071185;28;20103;-38
2022/01/19 00:31:59;;;;;;;5.47;2.83;;;;;;;-2.91;58.79;94547.44;5071214;28;20073;-38
2022/01/19 00:34:24;;;;;;;5.60;3.35;;;;;;;-3.11;59.27;94526.06;5071171;28;20071;-38
2022/01/19 00:36:50;;;;;;;6.07;3.40;;;;;;;-2.98;59.28;94546.88;5070916;28;20051;-38
2022/01/19 00:39:15;;;;;;;9.32;3.78;;;;;;;-3.00;59.07;94551.97;5071217;28;20016;-38
2022/01/19 00:41:41;;;;;;;8.73;4.13;;;;;;;-3.04;59.35;94559.44;5071102;28;20506;-38
2022/01/19 00:44:06;;;;;;;5.90;3.60;;;;;;;-2.77;59.63;94565.88;5071376;28;20035;-38
2022/01/19 00:46:32;;;;;;;8.30;3.83;;;;;;;-2.67;59.17;94572.13;5071334;28;20457;-38
2022/01/19 00:48:57;;;;;;;11.48;3.92;;;;;;;-2.55;58.86;94568.63;5071306;28;20433;-38
2022/01/19 00:51:23;;;;;;;7.53;3.80;;;;;;;-2.39;58.18;94576.59;5071016;28;20020;-38
2022/01/19 00:53:48;;;;;;;7.57;3.97;;;;;;;-2.46;58.43;94584.94;5070964;28;20027;-38
2022/01/19 00:56:14;;;;;;;13.48;4.63;;;;;;;-2.27;58.12;94593.97;5070867;28;20035;-38
2022/01/19 00:58:39;;;;;;;8.18;3.88;;;;;;;-2.14;57.47;94598.13;5071135;28;20099;-39
2022/01/19 01:01:05;;;;;;;8.45;3.45;;;;;;;-2.11;57.29;94582.97;5070928;28;20379;-38
2022/01/19 01:03:30;;;;;;;9.98;3.83;;;;;;;-2.08;56.95;94582.09;5071233;28;20013;-38
2022/01/19 01:05:56;;;;;;;4.72;3.65;;;;;;;-2.27;57.64;94573.06;5070746;28;20066;-39
2022/01/19 01:08:21;;;;;;;6.18;3.50;;;;;;;-2.14;58.31;94571.06;5070759;28;20016;-38
2022/01/19 01:10:48;;;;;;;5.88;3.53;;;;;;;-1.96;57.22;94582.03;5071035;28;20020;-38
2022/01/19 01:15:26;;;;;;;6.70;3.25;;;;;;;-2.03;57.29;94576.09;5071212;28;20020;-38
2022/01/19 01:16:32;;;;;;;8.93;4.18;;;;;;;-1.85;56.90;94568.13;5074466;28;20060;-38
2022/01/19 01:18:58;;;;;;;6.78;2.80;;;;;;;-1.96;56.40;94554.22;5073776;28;20409;-38
2022/01/19 01:21:24;;;;;;;5.70;2.92;;;;;;;-2.01;55.97;94557.47;5074743;28;20025;-38
2022/01/19 01:23:50;;;;;;;6.57;2.85;;;;;;;-2.06;56.64;94556.13;5073962;28;20031;-38
2022/01/19 01:26:16;;;;;;;6.68;3.08;;;;;;;-2.02;56.22;94558.69;5074182;28;20139;-38
2022/01/19 01:28:41;;;;;;;6.05;2.63;;;;;;;-1.97;56.39;94550.00;5074283;28;20031;-38
2022/01/19 01:31:10;;;;;;;7.22;3.95;;;;;;;-2.01;56.23;94552.81;5074570;28;20111;-38
2022/01/19 01:33:39;;;;;;;4.20;2.95;;;;;;;-1.95;56.70;94566.56;5072671;28;20028;-38
2022/01/19 01:36:04;;;;;;;;;;;;;;;-1.89;56.02;94575.63;5074927;28;20028;-39
2022/01/19 01:38:30;;;;;;;5.43;2.25;;;;;;;-2.05;56.12;94568.44;5074009;28;19908;-39
2022/01/19 01:40:55;;;;;;;4.43;2.90;;;;;;;-2.02;57.51;94562.16;5073915;28;20029;-38
2022/01/19 01:43:21;;;;;;;5.30;2.63;;;;;;;-2.30;56.45;94528.00;5074353;28;20035;-38
2022/01/19 01:45:51;;;;;;;6.57;3.13;;;;;;;-2.04;56.54;94552.97;5074347;28;20023;-39
2022/01/19 01:48:20;;;;;;;7.80;3.33;;;;;;;-1.90;56.63;94558.63;5073952;28;20017;-39
2022/01/19 01:53:32;;;;;;;5.18;2.53;;;;;;;-1.87;55.82;94538.78;5074244;28;20085;-39
2022/01/19 01:56:05;;;;;;;8.63;4.00;;;;;;;-2.02;55.54;94534.34;5073972;28;20020;-38
2022/01/19 01:58:34;;;;;;;9.68;5.47;;;;;;;-2.01;55.95;94535.81;5073834;28;20024;-36
2022/01/19 02:00:59;;;;;;;6.65;4.03;;;;;;;-1.82;55.70;94543.63;5073329;28;20030;-37
2022/01/19 02:03:25;;;;;;;26.65;11.75;;;;;;;-1.95;56.48;94550.31;5073185;28;20025;-37
2022/01/19 02:06:16;;;;;;;8.35;3.42;;;;;;;-1.82;55.05;94549.03;5073252;28;20056;-38
2022/01/19 02:08:59;;;;;;;;;;;;;;;-1.86;54.43;94547.66;5071470;28;20024;-36
2022/01/19 02:15:51;;;;;;;4.82;2.92;;;;;;;-1.96;54.47;94544.16;5071411;28;19912;-37
2022/01/19 02:23:05;;;;;;;10.38;5.20;;;;;;;-1.85;55.21;94522.09;5073403;28;20030;-37
2022/01/19 02:25:37;;;;;;;23.77;13.52;;;;;;;-1.94;56.15;94520.09;5072901;28;20090;-37
2022/01/19 02:41:41;;;;;;;8.40;3.95;;;;;;;-2.28;57.41;94512.06;5073368;28;20028;-38
2022/01/19 02:44:13;;;;;;;9.38;4.20;;;;;;;-2.26;56.97;94512.38;5072819;28;20028;-38
2022/01/19 02:49:17;;;;;;;7.13;4.30;;;;;;;-2.34;56.94;94524.66;5072884;28;20444;-37
2022/01/19 02:51:44;;;;;;;6.10;4.15;;;;;;;-2.37;57.24;94531.69;5072970;28;20153;-38
2022/01/19 02:54:17;;;;;;;11.43;4.68;;;;;;;-2.47;57.08;94532.06;5072689;28;20501;-38
2022/01/19 02:56:47;;;;;;;7.68;4.00;;;;;;;-2.67;57.76;94535.06;5072419;28;20520;-38
2022/01/19 03:09:47;;;;;;;11.38;6.63;;;;;;;-2.99;59.78;94529.19;5072949;28;20020;-38
2022/01/19 03:12:13;;;;;;;9.35;4.20;;;;;;;-3.08;60.00;94533.31;5072602;28;20025;-38
2022/01/19 03:14:39;;;;;;;5.22;3.30;;;;;;;-3.29;59.98;94512.38;5072541;28;20029;-37
2022/01/19 03:17:06;;;;;;;4.18;3.05;;;;;;;-3.16;60.26;94525.84;5072399;28;20024;-38
2022/01/19 03:19:33;;;;;;;8.88;3.00;;;;;;;-3.18;59.92;94533.63;5072478;28;20090;-37
2022/01/19 03:21:59;;;;;;;6.93;3.58;;;;;;;-3.39;59.69;94528.91;5072152;28;20082;-37
2022/01/19 03:24:25;;;;;;;9.25;4.28;;;;;;;-3.42;60.20;94527.09;5071739;28;20032;-37
2022/01/19 03:26:51;;;;;;;10.70;5.13;;;;;;;-3.38;60.33;94531.16;5071958;28;20118;-38
2022/01/19 03:29:17;;;;;;;12.63;6.28;;;;;;;-3.28;59.43;94530.09;5072339;28;20485;-38
2022/01/19 03:31:42;;;;;;;5.85;4.20;;;;;;;-3.58;59.77;94519.84;5072094;28;20028;-38
2022/01/19 03:34:08;;;;;;;6.85;3.85;;;;;;;-4.05;60.85;94524.34;5071962;28;20413;-38
2022/01/19 03:36:35;;;;;;;6.55;3.53;;;;;;;-3.92;61.46;94531.25;5070987;28;20104;-38
2022/01/19 03:39:00;;;;;;;7.18;3.90;;;;;;;-4.10;62.34;94531.00;5071872;28;20494;-38
2022/01/19 03:41:26;;;;;;;15.05;4.38;;;;;;;-4.10;61.62;94524.84;5071985;28;20028;-38
2022/01/19 03:43:52;;;;;;;10.48;5.35;;;;;;;-4.11;61.27;94526.03;5071897;28;20418;-38
2022/01/19 03:46:18;;;;;;;10.95;3.67;;;;;;;-4.54;63.09;94528.38;5072051;28;20059;-38
2022/01/19 03:48:57;;;;;;;10.70;4.05;;;;;;;-4.37;62.13;94543.31;5071808;28;20021;-38
2022/01/19 03:51:23;;;;;;;8.43;3.60;;;;;;;-4.35;62.58;94546.38;5071666;28;20566;-38
2022/01/19 03:53:49;;;;;;;9.55;3.25;;;;;;;-4.47;63.94;94545.13;5071575;28;20028;-37
2022/01/19 03:56:15;;;;;;;10.05;4.10;;;;;;;-4.75;64.46;94548.56;5071546;28;20028;-37
2022/01/19 03:58:41;;;;;;;43.47;17.63;;;;;;;-4.90;64.54;94550.88;5071503;28;20402;-37
2022/01/19 04:01:08;;;;;;;20.00;10.05;;;;;;;-4.81;65.52;94558.34;5071849;28;20024;-37
2022/01/19 04:06:07;;;;;;;10.23;5.90;;;;;;;-4.56;64.40;94561.16;5071483;28;20016;-37
2022/01/19 04:08:32;;;;;;;36.40;13.68;;;;;;;-4.70;63.83;94556.88;5071730;28;20051;-36
2022/01/19 04:10:58;;;;;;;19.63;6.72;;;;;;;-4.44;64.28;94565.09;5071674;28;20458;-37
2022/01/19 04:15:54;;;;;;;20.63;8.75;;;;;;;-4.45;63.94;94553.53;5071419;28;20028;-37
2022/01/19 04:18:20;;;;;;;9.43;4.75;;;;;;;-4.26;63.99;94559.97;5071634;28;20024;-37
2022/01/19 04:20:50;;;;;;;17.67;8.50;;;;;;;-3.97;63.87;94564.16;5071236;28;20482;-37
2022/01/19 04:23:17;;;;;;;14.70;6.63;;;;;;;-3.84;62.53;94566.88;5071096;28;20032;-37
2022/01/19 04:25:43;;;;;;;11.63;6.72;;;;;;;-3.99;63.04;94522.63;5071096;28;20045;-37
2022/01/19 04:28:09;;;;;;;16.95;8.13;;;;;;;-3.57;62.80;94569.19;5071377;28;20027;-37
2022/01/19 04:30:35;;;;;;;12.32;6.85;;;;;;;-3.56;63.12;94568.75;5071075;28;20020;-37
2022/01/19 04:33:07;;;;;;;14.38;6.15;;;;;;;-3.65;63.71;94568.63;5071249;28;20501;-37
2022/01/19 04:35:44;;;;;;;11.15;7.50;;;;;;;-3.54;63.91;94569.06;5071397;28;20020;-37
2022/01/19 04:54:18;;;;;;;6.45;3.03;;;;;;;-4.02;63.88;94580.09;5074381;28;20547;-37
2022/01/19 05:03:01;;;;;;;9.82;3.70;;;;;;;-3.90;63.76;94576.69;5074723;28;20401;-37
2022/01/19 05:05:28;;;;;;;10.15;3.78;;;;;;;-3.59;62.73;94574.22;5074680;28;20028;-37
2022/01/19 05:08:10;;;;;;;7.95;4.22;;;;;;;-3.47;62.26;94579.66;5074755;28;20023;-38
2022/01/19 05:15:49;;;;;;;9.98;6.43;;;;;;;-3.11;61.83;94571.22;5074736;28;20071;-38
2022/01/19 05:18:16;;;;;;;22.63;7.75;;;;;;;-3.22;61.61;94560.75;5074516;28;20045;-38
2022/01/19 05:20:42;;;;;;;19.42;9.90;;;;;;;-3.09;61.81;94579.66;5074383;28;20098;-38
2022/01/19 05:23:07;;;;;;;14.02;6.78;;;;;;;-2.97;61.95;94581.59;5074155;28;20050;-38
2022/01/19 05:25:33;;;;;;;10.65;5.43;;;;;;;-2.98;62.21;94571.97;5074354;28;20112;-38
2022/01/19 05:27:58;;;;;;;8.30;2.97;;;;;;;-2.84;61.53;94587.75;5074405;28;20627;-38
2022/01/19 05:30:24;;;;;;;5.00;2.90;;;;;;;-2.74;60.42;94591.28;5074578;28;20059;-37
2022/01/19 05:32:49;;;;;;;3.20;2.42;;;;;;;-2.69;59.70;94596.13;5073921;28;20498;-38
2022/01/19 05:35:15;;;;;;;6.07;3.00;;;;;;;-2.65;59.66;94596.78;5074473;28;20078;-38
2022/01/19 05:37:41;;;;;;;4.97;3.15;;;;;;;-2.58;59.42;94601.97;5074444;28;20394;-38
2022/01/19 05:40:08;;;;;;;6.13;3.15;;;;;;;-2.58;59.73;94608.13;5074117;28;20056;-37
2022/01/19 05:42:33;;;;;;;3.05;2.67;;;;;;;-2.54;59.20;94608.00;5074291;28;20025;-37
2022/01/19 05:44:59;;;;;;;7.65;3.85;;;;;;;-2.44;59.00;94615.75;5071752;28;20421;-37
2022/01/19 05:47:25;;;;;;;7.50;4.07;;;;;;;-2.36;58.43;94619.00;5071559;28;20037;-38
2022/01/19 05:49:50;;;;;;;11.48;6.20;;;;;;;-2.32;58.24;94622.31;5071262;28;20020;-37
2022/01/19 05:52:16;;;;;;;12.13;7.43;;;;;;;-2.36;58.38;94633.25;5071735;28;20031;-37
2022/01/19 05:54:41;;;;;;;8.07;5.60;;;;;;;-2.32;58.05;94631.19;5071348;28;20021;-38
2022/01/19 05:57:07;;;;;;;8.57;3.85;;;;;;;-2.23;58.33;94627.06;5071520;28;20037;-37
2022/01/19 05:59:33;;;;;;;5.03;3.05;;;;;;;-2.23;57.75;94627.78;5070903;28;20386;-38
2022/01/19 06:01:59;;;;;;;3.50;3.20;;;;;;;-2.25;58.95;94635.59;5071375;28;20051;-38
2022/01/19 06:04:24;;;;;;;10.45;4.18;;;;;;;-2.36;59.00;94619.72;5070489;28;20044;-38
2022/01/19 06:06:52;;;;;;;9.55;5.03;;;;;;;-2.27;58.88;94640.69;5069759;28;20016;-38
2022/01/19 06:09:32;;;;;;;14.60;7.20;;;;;;;-2.19;58.52;94646.63;5069248;28;20155;-38
2022/01/19 06:11:58;;;;;;;17.55;8.90;;;;;;;-2.03;58.53;94633.69;5069501;28;20564;-38
2022/01/19 06:14:23;;;;;;;14.98;8.20;;;;;;;-2.01;58.14;94636.72;5070568;28;20143;-38
2022/01/19 06:16:49;;;;;;;17.02;10.25;;;;;;;-2.03;58.17;94643.75;5070601;28;20050;-38
2022/01/19 06:19:19;;;;;;;10.48;6.32;;;;;;;-2.04;57.54;94642.25;5067518;28;20041;-37
2022/01/19 06:21:45;;;;;;;10.95;5.95;;;;;;;-2.04;57.55;94644.97;5069759;28;20033;-37
2022/01/19 06:24:10;;;;;;;13.57;7.30;;;;;;;-1.99;57.92;94647.13;5068916;28;20505;-36
2022/01/19 06:26:36;;;;;;;12.38;6.85;;;;;;;-1.89;57.97;94643.28;5069663;28;20052;-36
2022/01/19 06:29:02;;;;;;;9.60;6.43;;;;;;;-2.00;58.58;94640.94;5069809;28;20035;-38
2022/01/19 06:31:28;;;;;;;11.82;6.30;;;;;;;-1.88;58.40;94647.47;5069660;28;20469;-37
2022/01/19 06:33:53;;;;;;;8.65;6.35;;;;;;;-1.87;58.40;94646.28;5069565;28;20028;-37
2022/01/19 06:36:19;;;;;;;10.00;5.05;;;;;;;-1.81;58.37;94652.66;5069501;28;20417;-37
2022/01/19 06:38:45;;;;;;;14.55;5.13;;;;;;;-1.80;57.92;94648.75;5069840;28;20107;-37
2022/01/19 06:41:10;;;;;;;11.43;6.20;;;;;;;-1.75;58.03;94659.78;5069428;28;20544;-36
2022/01/19 06:43:36;;;;;;;14.85;6.90;;;;;;;-1.67;58.45;94654.88;5069734;28;20024;-37
2022/01/19 06:46:01;;;;;;;9.75;6.00;;;;;;;-1.67;57.90;94658.31;5069190;28;20685;-36
2022/01/19 06:48:27;;;;;;;9.63;5.10;;;;;;;-1.61;58.04;94658.53;5069318;28;20505;-37
2022/01/19 06:50:52;;;;;;;14.90;8.85;;;;;;;-1.58;57.40;94657.63;5069563;28;20110;-37
2022/01/19 06:53:18;;;;;;;12.95;6.68;;;;;;;-1.54;58.17;94650.88;5069436;28;20033;-37
2022/01/19 06:55:43;;;;;;;25.17;10.65;;;;;;;-1.51;58.46;94657.38;5069587;28;20103;-37
2022/01/19 06:58:09;;;;;;;12.98;6.43;;;;;;;-1.44;58.67;94657.13;5069046;28;20024;-37
2022/01/19 07:00:34;;;;;;;19.73;6.72;;;;;;;-1.46;58.28;94664.19;5069132;28;20037;-37
2022/01/19 07:03:00;;;;;;;14.77;6.88;;;;;;;-1.46;57.26;94654.09;5068823;28;20092;-36
2022/01/19 07:05:25;;;;;;;9.30;5.07;;;;;;;-1.64;57.35;94660.16;5068463;28;20017;-37
2022/01/19 07:07:54;;;;;;;10.05;6.03;;;;;;;-1.85;58.54;94658.19;5068804;28;20128;-37
2022/01/19 07:10:20;;;;;;;17.10;8.82;;;;;;;-2.10;59.55;94652.84;5067963;28;20051;-37
2022/01/19 07:12:46;;;;;;;8.82;5.45;;;;;;;-2.30;60.43;94663.22;5068702;28;20048;-36
2022/01/19 07:15:11;;;;;;;9.05;6.47;;;;;;;-2.42;60.47;94659.34;5068356;28;20087;-36
2022/01/19 07:17:37;;;;;;;13.10;7.20;;;;;;;-2.46;61.29;94668.75;5068616;28;20025;-37
2022/01/19 07:20:03;;;;;;;9.68;5.93;;;;;;;-2.40;61.50;94662.34;5068889;28;20027;-37
2022/01/19 07:22:29;;;;;;;13.73;6.60;;;;;;;-2.39;61.51;94657.72;5068542;28;20032;-37
2022/01/19 07:24:55;;;;;;;11.65;5.35;;;;;;;-2.49;61.63;94659.56;5068275;28;20520;-36
2022/01/19 07:27:20;;;;;;;8.63;5.85;;;;;;;-2.39;61.79;94660.41;5067313;28;20081;-37
2022/01/19 07:29:46;;;;;;;12.48;7.10;;;;;;;-2.31;61.60;94659.75;5067784;28;20024;-37
2022/01/19 07:32:12;;;;;;;9.63;5.22;;;;;;;-2.10;60.78;94663.69;5067622;28;20081;-36
2022/01/19 07:34:38;;;;;;;10.55;5.70;;;;;;;-2.07;61.41;94673.63;5068213;28;20032;-36
2022/01/19 07:37:03;;;;;;;9.43;4.45;;;;;;;-2.07;61.46;94662.06;5068271;28;20073;-36
2022/01/19 07:39:29;;;;;;;10.63;5.53;;;;;;;-1.97;61.97;94653.56;5100987;28;20078;-36
2022/01/19 07:41:55;;;;;;;6.85;4.80;;;;;;;-1.74;60.45;94658.59;5068039;28;20033;-37
2022/01/19 07:44:22;;;;;;;10.13;6.47;;;;;;;-1.70;60.61;94670.03;5067876;28;20059;-37
2022/01/19 07:46:48;;;;;;;12.35;6.25;;;;;;;-1.65;60.40;94666.78;5067264;28;20092;-37
2022/01/19 07:49:14;;;;;;;7.68;4.97;;;;;;;-1.35;59.95;94661.84;5065714;28;20032;-37
2022/01/19 07:51:40;;;;;;;11.85;5.05;;;;;;;-1.22;58.87;94665.22;5066548;28;20024;-36
2022/01/19 07:54:05;;;;;;;7.20;5.07;;;;;;;-1.02;57.99;94674.50;5067350;28;20500;-36
2022/01/19 07:56:31;;;;;;;17.65;7.20;;;;;;;-0.88;58.35;94670.50;5067635;28;20013;-36
2022/01/19 07:58:56;;;;;;;9.20;6.60;;;;;;;-0.99;58.49;94667.44;5068615;28;20028;-36
2022/01/19 08:01:22;;;;;;;13.70;7.25;;;;;;;-0.87;58.78;94674.75;5070221;28;20031;-37
2022/01/19 08:03:48;;;;;;;11.55;6.13;;;;;;;-0.75;58.69;94679.31;5070144;28;20027;-36
2022/01/19 08:06:14;;;;;;;11.13;5.22;;;;;;;-0.70;58.22;94680.69;5070140;28;20177;-36
2022/01/19 08:08:39;;;;;;;11.20;6.45;;;;;;;-0.76;59.21;94665.00;5069997;28;20029;-36
2022/01/19 08:11:05;;;;;;;8.73;5.85;;;;;;;-0.71;58.59;94660.22;5069943;28;20103;-36
2022/01/19 08:13:30;;;;;;;18.42;6.50;;;;;;;-0.18;57.78;94647.97;5070183;28;20028;-36
2022/01/19 08:15:56;;;;;;;18.30;7.47;;;;;;;0.35;56.15;94662.00;5069842;28;20025;-36
2022/01/19 08:18:21;;;;;;;15.95;7.45;;;;;;;0.57;55.38;94673.47;5070057;28;20028;-36
2022/01/19 08:20:47;;;;;;;18.77;8.70;;;;;;;1.33;54.53;94668.47;5069272;28;20077;-37
2022/01/19 08:23:12;;;;;;;17.23;6.25;;;;;;;1.01;53.31;94674.63;5068760;28;20104;-37
2022/01/19 08:25:38;;;;;;;15.60;6.90;;;;;;;0.93;53.73;94668.00;5069740;28;20049;-37
2022/01/19 08:28:04;;;;;;;16.42;7.57;;;;;;;1.04;53.48;94664.81;5070277;28;20107;-37
2022/01/19 08:30:29;;;;;;;16.67;7.68;;;;;;;1.41;53.99;94664.19;5068868;28;20025;-37
2022/01/19 08:32:55;;;;;;;12.20;7.18;;;;;;;1.74;51.15;94669.63;5069953;28;20476;-37
2022/01/19 08:35:21;;;;;;;17.38;7.43;;;;;;;1.51;53.16;94673.09;5069437;28;20031;-36
2022/01/19 08:49:19;;;;;;;15.57;7.85;;;;;;;1.90;51.59;94685.59;5085532;27;20618;-36
2022/01/19 08:51:45;;;;;;;26.13;10.85;;;;;;;1.83;52.13;94679.72;5087462;28;20111;-36
2022/01/19 08:54:11;;;;;;;16.23;9.65;;;;;;;1.98;52.18;94683.25;5086367;28;20039;-36
2022/01/19 08:56:37;;;;;;;16.98;9.25;;;;;;;2.06;51.68;94671.56;5078035;28;20134;-36
2022/01/19 08:59:03;;;;;;;20.02;10.30;;;;;;;2.14;52.07;94674.69;5067101;28;20104;-36
2022/01/19 09:01:28;;;;;;;25.40;10.88;;;;;;;2.13;51.33;94665.75;5067799;28;20044;-36
2022/01/19 09:03:54;;;;;;;17.20;9.13;;;;;;;2.29;51.16;94670.81;5081980;28;20063;-36
2022/01/19 09:06:19;;;;;;;21.33;10.77;;;;;;;2.21;51.91;94674.31;5086817;28;20182;-36
2022/01/19 09:08:45;;;;;;;21.33;11.05;;;;;;;2.26;51.42;94676.41;5081863;28;20111;-36
2022/01/19 09:11:12;;;;;;;22.80;10.07;;;;;;;1.69;51.69;94617.81;5066782;28;20135;-36
2022/01/19 09:13:38;;;;;;;22.92;10.13;;;;;;;2.26;51.60;94676.41;5066176;28;20099;-36
2022/01/19 09:16:04;;;;;;;14.98;9.35;;;;;;;2.41;51.23;94682.66;5065637;28;20020;-36
2022/01/19 09:18:29;;;;;;;14.13;9.63;;;;;;;3.24;49.72;94681.44;5066269;28;20028;-37
2022/01/19 09:20:55;;;;;;;13.80;8.20;;;;;;;3.35;48.22;94678.16;5065358;28;20063;-36
2022/01/19 09:23:20;;;;;;;15.35;8.95;;;;;;;3.00;50.44;94667.16;5065969;28;20501;-36
2022/01/19 09:25:46;;;;;;;17.52;8.55;;;;;;;3.02;48.99;94659.25;5068720;28;20032;-36
2022/01/19 09:28:11;;;;;;;11.18;7.63;;;;;;;3.85;47.88;94653.06;5083179;28;20028;-36
2022/01/19 09:30:38;;;;;;;15.00;8.35;;;;;;;5.78;43.72;94653.53;5086675;28;20024;-37
2022/01/19 09:33:08;;;;;;;13.50;7.93;;;;;;;7.01;41.14;94641.13;5086498;28;20056;-36
2022/01/19 09:36:04;;;;;;;11.68;6.78;;;;;;;8.39;38.03;94633.53;5086232;28;20028;-37
2022/01/19 09:38:35;;;;;;;12.20;6.90;;;;;;;9.52;34.80;94627.63;5046051;28;20064;-37
2022/01/19 09:41:01;;;;;;;10.68;6.20;;;;;;;10.21;33.10;94619.75;5045447;28;20025;-38
2022/01/19 09:43:27;;;;;;;12.48;6.03;;;;;;;10.52;32.53;94626.69;5045998;28;20136;-37
2022/01/19 09:45:55;;;;;;;14.98;7.63;;;;;;;11.10;32.67;94607.56;5054406;28;20446;-38
2022/01/19 09:48:22;;;;;;;13.68;7.55;;;;;;;11.35;31.50;94611.72;5072302;28;20132;-38
2022/01/19 09:50:47;;;;;;;12.88;7.82;;;;;;;11.29;31.29;94613.81;5073166;28;20051;-38
2022/01/19 09:53:13;;;;;;;12.25;7.57;;;;;;;11.85;29.57;94608.19;5072483;28;20046;-38
2022/01/19 09:55:40;;;;;;;10.18;6.75;;;;;;;11.24;31.21;94609.16;5072498;28;20024;-39
2022/01/19 09:58:07;;;;;;;21.10;11.48;;;;;;;11.77;30.65;94615.63;5072610;28;20079;-38
2022/01/19 10:00:33;;;;;;;19.13;8.73;;;;;;;12.28;29.38;94603.13;5072666;28;20101;-38
2022/01/19 10:03:24;;;;;;;15.60;7.75;;;;;;;12.61;29.44;94605.25;5072366;28;20493;-38
2022/01/19 10:05:55;;;;;;;14.43;7.63;;;;;;;12.37;29.02;94615.78;5071589;28;20032;-39
2022/01/19 10:48:38;;;;;;;8.70;6.13;;;;;;;12.18;26.84;94525.28;5087582;27;20606;-37
2022/01/19 10:51:16;;;;;;;10.23;5.63;;;;;;;12.78;26.86;94530.06;5087827;28;20047;-37
2022/01/19 10:53:47;;;;;;;9.82;5.40;;;;;;;13.21;26.13;94526.88;5087187;28;20521;-38
2022/01/19 10:56:44;;;;;;;8.60;4.85;;;;;;;12.38;26.66;94526.66;5086313;28;20413;-37
2022/01/19 10:59:14;;;;;;;14.57;5.00;;;;;;;11.84;28.33;94518.16;5082114;28;20540;-38
2022/01/19 11:01:49;;;;;;;11.43;5.85;;;;;;;11.54;27.61;94517.66;5087662;28;20031;-37
2022/01/19 11:04:26;;;;;;;9.10;6.30;;;;;;;12.03;27.79;94510.50;5087328;28;20069;-38
2022/01/19 11:06:56;;;;;;;9.63;5.93;;;;;;;12.50;27.08;94510.53;5087347;28;20020;-38
2022/01/19 11:09:27;;;;;;;36.80;14.52;;;;;;;12.82;26.20;94514.59;5087036;28;20044;-37
2022/01/19 11:11:54;;;;;;;26.20;11.10;;;;;;;12.69;25.63;94502.84;5086865;28;20060;-38
2022/01/19 11:14:20;;;;;;;11.23;5.60;;;;;;;12.92;25.21;94501.06;5087356;28;20050;-38
2022/01/19 11:16:47;;;;;;;8.55;4.28;;;;;;;13.17;24.93;94496.69;5087323;28;20048;-38
2022/01/19 11:19:14;;;;;;;9.07;5.10;;;;;;;12.84;25.40;94489.16;5087211;28;20032;-38
2022/01/19 11:22:09;;;;;;;9.32;5.30;;;;;;;12.40;26.16;94482.56;5087913;28;20431;-38
2022/01/19 11:36:21;;;;;;;8.00;4.13;;;;;;;13.60;24.11;94477.47;5073472;27;20622;-38
2022/01/19 11:38:49;;;;;;;14.15;5.32;;;;;;;12.17;25.81;94473.94;5068384;28;20048;-38
2022/01/19 11:41:14;;;;;;;7.95;4.47;;;;;;;12.19;25.33;94467.91;5067875;28;20718;-38
2022/01/19 11:43:55;;;;;;;8.77;4.95;;;;;;;12.33;25.96;94449.22;5068180;28;20024;-38
2022/01/19 11:46:32;;;;;;;12.48;6.45;;;;;;;12.29;26.29;94452.31;5068254;28;20515;-38
2022/01/19 11:49:02;;;;;;;12.50;5.88;;;;;;;12.45;26.82;94442.91;5067960;28;20039;-38
2022/01/19 11:51:39;;;;;;;8.93;5.45;;;;;;;11.64;27.44;94453.09;5068497;28;20029;-38
2022/01/19 11:54:11;;;;;;;11.25;6.40;;;;;;;11.88;26.77;94452.91;5068061;28;20017;-38
2022/01/19 11:56:58;;;;;;;8.55;5.20;;;;;;;12.08;26.43;94455.00;5068026;28;20031;-38
2022/01/19 11:59:26;;;;;;;7.10;5.20;;;;;;;12.17;25.95;94457.34;5080698;28;20397;-38
2022/01/19 12:01:52;;;;;;;9.82;5.25;;;;;;;11.87;26.62;94456.94;5088181;28;20070;-38
2022/01/19 12:04:21;;;;;;;11.38;4.90;;;;;;;11.21;27.39;94458.16;5088360;28;20024;-38
2022/01/19 12:06:48;;;;;;;8.23;4.32;;;;;;;11.02;27.51;94460.22;5088632;28;20032;-38
2022/01/19 12:09:15;;;;;;;10.57;5.63;;;;;;;10.34;27.79;94456.97;5093901;28;20032;-37
2022/01/19 12:11:48;;;;;;;9.07;5.53;;;;;;;10.66;27.47;94455.00;5088400;28;20024;-38
2022/01/19 12:14:20;;;;;;;9.95;5.72;;;;;;;10.34;27.88;94445.94;5088303;28;20399;-38
2022/01/19 12:17:25;;;;;;;15.40;6.28;;;;;;;9.97;29.60;94436.88;5088190;28;20024;-37
2022/01/19 12:19:51;;;;;;;8.55;5.32;;;;;;;10.10;28.55;94439.72;5087719;28;20024;-38
2022/01/19 12:22:26;;;;;;;13.15;6.07;;;;;;;10.31;28.18;94430.41;5087868;28;20032;-38
2022/01/19 12:24:59;;;;;;;7.95;4.40;;;;;;;10.06;29.21;94426.22;5087690;28;20021;-37
2022/01/19 12:27:38;;;;;;;14.18;6.57;;;;;;;9.56;29.38;94439.88;5087696;28;20024;-38
2022/01/19 12:30:11;;;;;;;;;;;;;;;9.11;30.47;94432.06;5088288;28;20101;-37
2022/01/19 12:32:44;;;;;;;10.73;5.53;;;;;;;9.17;30.76;94420.97;5083194;28;19912;-38
2022/01/19 12:35:19;;;;;;;12.50;6.15;;;;;;;9.01;29.84;94417.13;5077372;28;20044;-37
2022/01/19 12:37:48;;;;;;;11.55;5.53;;;;;;;8.95;31.60;94421.19;5073375;28;20032;-38
2022/01/19 12:40:19;;;;;;;11.35;5.95;;;;;;;8.62;31.18;94402.94;5073284;28;20028;-38
2022/01/19 12:42:56;;;;;;;12.27;5.40;;;;;;;8.60;31.52;94402.72;5072969;28;20056;-38
2022/01/19 12:45:43;;;;;;;7.38;4.35;;;;;;;8.37;31.67;94399.41;5073016;28;20463;-38
2022/01/19 12:48:08;;;;;;;9.73;6.72;;;;;;;8.07;32.52;94403.31;5073156;28;20110;-38
2022/01/19 12:50:54;;;;;;;9.05;5.43;;;;;;;8.05;32.21;94397.59;5071029;28;20408;-38
2022/01/19 12:53:22;;;;;;;8.63;5.72;;;;;;;7.28;33.30;94393.94;5071449;28;20059;-38
2022/01/19 12:56:08;;;;;;;13.25;5.78;;;;;;;7.36;33.94;94385.94;5072938;28;20421;-38
2022/01/19 12:58:36;;;;;;;12.10;5.43;;;;;;;7.06;33.51;94388.50;5071092;28;20032;-38
2022/01/19 13:01:06;;;;;;;11.63;5.50;;;;;;;7.41;32.72;94380.41;5072813;28;20470;-38
2022/01/19 13:03:37;;;;;;;8.02;5.10;;;;;;;7.28;33.14;94371.22;5072354;28;20594;-37
2022/01/19 13:06:07;;;;;;;10.35;4.68;;;;;;;7.17;33.58;94382.97;5072579;28;20062;-38
2022/01/19 13:08:41;;;;;;;11.98;5.15;;;;;;;7.08;34.47;94386.00;5072802;28;20104;-38
2022/01/19 13:11:24;;;;;;;8.57;5.10;;;;;;;6.84;34.82;94383.81;5056065;28;20036;-38
2022/01/19 13:13:56;;;;;;;10.27;4.97;;;;;;;6.67;35.00;94385.09;5052600;28;20044;-37
2022/01/19 13:16:46;;;;;;;11.10;6.03;;;;;;;6.67;34.89;94390.59;5052416;28;20112;-37
2022/01/19 13:19:20;;;;;;;10.73;5.65;;;;;;;6.66;35.02;94380.84;5048264;28;20037;-37
2022/01/19 13:21:48;;;;;;;9.38;4.78;;;;;;;6.48;35.72;94365.66;5072023;28;20027;-37
2022/01/19 13:24:26;;;;;;;9.82;4.78;;;;;;;6.66;34.41;94365.16;5060902;28;20052;-38
2022/01/19 13:26:59;;;;;;;9.25;6.65;;;;;;;6.38;34.59;94367.16;5052087;28;20037;-37
2022/01/19 13:29:39;;;;;;;12.02;4.93;;;;;;;5.87;34.67;94376.59;5051930;28;20021;-37
2022/01/19 13:32:16;;;;;;;8.63;5.30;;;;;;;5.96;34.69;94370.88;5052132;28;20021;-37
2022/01/19 13:34:57;;;;;;;11.23;5.70;;;;;;;6.01;34.75;94367.41;5071868;28;20093;-37
2022/01/19 13:37:32;;;;;;;10.13;5.20;;;;;;;5.81;36.13;94361.34;5072029;28;20141;-37
2022/01/19 13:40:03;;;;;;;9.50;5.43;;;;;;;5.56;35.75;94365.03;5071864;28;20024;-37
2022/01/19 13:42:37;;;;;;;9.05;4.90;;;;;;;5.32;36.49;94338.84;5072028;28;20028;-38
2022/01/19 13:45:09;;;;;;;6.35;4.45;;;;;;;5.14;37.08;94357.66;5071544;28;20025;-37
2022/01/19 13:48:19;;;;;;;8.68;4.53;;;;;;;5.09;37.91;94350.19;5070742;28;20069;-37
2022/01/19 13:50:50;;;;;;;10.57;7.15;;;;;;;5.08;37.31;94343.97;5071564;28;20036;-37
2022/01/19 13:53:27;;;;;;;8.38;5.45;;;;;;;5.15;37.89;94342.75;5071340;28;20031;-37